sensor_id;sensor_type;location;lat;lon;timestamp;pressure;altitude;pressure_sealevel;temperature;humidity
76627;BME280;65519;53.230;10.390;2023-02-12T00:01:18;103148.03;;;7.36;92.09
76627;BME280;65519;53.230;10.390;2023-02-12T00:03:44;103152.00;;;7.33;92.42
76627;BME280;65519;53.230;10.390;2023-02-12T00:06:10;103156.00;;;7.38;92.27
76627;BME280;65519;53.230;10.390;2023-02-12T00:08:37;103156.66;;;7.40;92.12
76627;BME280;65519;53.230;10.390;2023-02-12T00:11:24;103163.41;;;7.44;91.99
76627;BME280;65519;53.230;10.390;2023-02-12T00:13:51;103168.53;;;7.53;91.66
76627;BME280;65519;53.230;10.390;2023-02-12T00:16:19;103157.59;;;7.47;91.64
76627;BME280;65519;53.230;10.390;2023-02-12T00:18:45;103163.97;;;7.39;91.25
76627;BME280;65519;53.230;10.390;2023-02-12T00:21:11;103167.63;;;7.46;92.27
76627;BME280;65519;53.230;10.390;2023-02-12T00:23:38;103167.34;;;7.41;91.49
76627;BME280;65519;53.230;10.390;2023-02-12T00:26:31;103177.72;;;7.38;90.86
76627;BME280;65519;53.230;10.390;2023-02-12T00:28:57;103177.34;;;7.41;91.77
76627;BME280;65519;53.230;10.390;2023-02-12T00:31:24;103169.56;;;7.38;91.98
76627;BME280;65519;53.230;10.390;2023-02-12T00:33:50;103170.22;;;7.40;91.05
76627;BME280;65519;53.230;10.390;2023-02-12T00:36:19;103176.22;;;7.50;91.53
76627;BME280;65519;53.230;10.390;2023-02-12T00:38:45;103177.81;;;7.44;91.08
76627;BME280;65519;53.230;10.390;2023-02-12T00:41:11;103178.47;;;7.46;91.63
76627;BME280;65519;53.230;10.390;2023-02-12T00:43:36;103168.91;;;7.50;90.57
76627;BME280;65519;53.230;10.390;2023-02-12T00:46:02;103174.63;;;7.41;90.79
76627;BME280;65519;53.230;10.390;2023-02-12T00:48:30;103180.44;;;7.52;90.80
76627;BME280;65519;53.230;10.390;2023-02-12T00:50:55;103186.44;;;7.33;90.31
76627;BME280;65519;53.230;10.390;2023-02-12T00:53:21;103188.19;;;7.41;90.07
76627;BME280;65519;53.230;10.390;2023-02-12T00:55:46;103185.66;;;7.39;90.25
76627;BME280;65519;53.230;10.390;2023-02-12T00:58:12;103184.06;;;7.30;91.00
76627;BME280;65519;53.230;10.390;2023-02-12T01:00:38;103179.13;;;7.33;90.37
76627;BME280;65519;53.230;10.390;2023-02-12T01:03:04;103188.31;;;7.32;90.77
76627;BME280;65519;53.230;10.390;2023-02-12T01:05:30;103187.28;;;7.33;90.90
76627;BME280;65519;53.230;10.390;2023-02-12T01:07:55;103188.41;;;7.24;91.12
76627;BME280;65519;53.230;10.390;2023-02-12T01:10:21;103190.53;;;7.29;90.87
76627;BME280;65519;53.230;10.390;2023-02-12T01:12:47;103193.81;;;7.24;90.82
76627;BME280;65519;53.230;10.390;2023-02-12T01:15:14;103198.94;;;7.49;89.98
76627;BME280;65519;53.230;10.390;2023-02-12T01:17:39;103188.09;;;7.49;89.27
76627;BME280;65519;53.230;10.390;2023-02-12T01:20:07;103185.38;;;7.49;88.88
76627;BME280;65519;53.230;10.390;2023-02-12T01:22:34;103187.53;;;7.53;89.31
76627;BME280;65519;53.230;10.390;2023-02-12T01:25:00;103184.84;;;7.53;89.79
76627;BME280;65519;53.230;10.390;2023-02-12T01:27:25;103178.94;;;7.35;90.45
76627;BME280;65519;53.230;10.390;2023-02-12T01:29:50;103189.34;;;7.46;90.34
76627;BME280;65519;53.230;10.390;2023-02-12T01:32:16;103181.94;;;7.40;89.96
76627;BME280;65519;53.230;10.390;2023-02-12T01:34:41;103196.78;;;7.59;90.01
76627;BME280;65519;53.230;10.390;2023-02-12T01:37:07;103196.91;;;7.51;89.26
76627;BME280;65519;53.230;10.390;2023-02-12T01:39:33;103198.69;;;7.44;89.93
76627;BME280;65519;53.230;10.390;2023-02-12T01:41:58;103189.22;;;7.54;89.35
76627;BME280;65519;53.230;10.390;2023-02-12T01:44:27;103190.06;;;7.55;89.07
76627;BME280;65519;53.230;10.390;2023-02-12T01:46:57;103201.38;;;7.58;88.84
76627;BME280;65519;53.230;10.390;2023-02-12T01:51:56;103178.09;;;7.35;89.15
76627;BME280;65519;53.230;10.390;2023-02-12T01:54:23;103191.41;;;7.44;89.12
76627;BME280;65519;53.230;10.390;2023-02-12T01:56:51;103192.88;;;7.47;88.85
76627;BME280;65519;53.230;10.390;2023-02-12T01:59:18;103185.78;;;7.46;88.78
76627;BME280;65519;53.230;10.390;2023-02-12T02:01:44;103199.63;;;7.51;88.49
76627;BME280;65519;53.230;10.390;2023-02-12T02:04:16;103188.38;;;7.39;89.01
76627;BME280;65519;53.230;10.390;2023-02-12T02:06:53;103201.47;;;7.36;88.81
76627;BME280;65519;53.230;10.390;2023-02-12T02:09:20;103211.97;;;7.24;89.33
76627;BME280;65519;53.230;10.390;2023-02-12T02:11:46;103217.13;;;7.33;88.99
76627;BME280;65519;53.230;10.390;2023-02-12T02:14:30;103212.88;;;7.16;89.17
76627;BME280;65519;53.230;10.390;2023-02-12T02:36:30;103223.75;;;6.93;89.91
76627;BME280;65519;53.230;10.390;2023-02-12T02:44:23;103218.38;;;7.08;89.65
76627;BME280;65519;53.230;10.390;2023-02-12T02:46:51;103222.03;;;7.01;89.63
76627;BME280;65519;53.230;10.390;2023-02-12T02:49:31;103229.41;;;7.07;90.23
76627;BME280;65519;53.230;10.390;2023-02-12T02:52:03;103244.00;;;7.06;90.08
76627;BME280;65519;53.230;10.390;2023-02-12T02:54:36;103240.31;;;7.21;88.88
76627;BME280;65519;53.230;10.390;2023-02-12T02:57:10;103238.44;;;7.22;89.32
76627;BME280;65519;53.230;10.390;2023-02-12T02:59:42;103238.34;;;7.30;88.80
76627;BME280;65519;53.230;10.390;2023-02-12T03:02:15;103244.31;;;7.25;88.27
76627;BME280;65519;53.230;10.390;2023-02-12T03:04:45;103242.13;;;7.06;88.63
76627;BME280;65519;53.230;10.390;2023-02-12T03:07:15;103248.25;;;7.23;88.80
76627;BME280;65519;53.230;10.390;2023-02-12T03:12:20;103248.91;;;7.25;87.83
76627;BME280;65519;53.230;10.390;2023-02-12T03:14:53;103244.78;;;7.29;87.84
76627;BME280;65519;53.230;10.390;2023-02-12T03:17:24;103242.72;;;7.16;87.78
76627;BME280;65519;53.230;10.390;2023-02-12T03:20:18;103248.56;;;7.05;88.26
76627;BME280;65519;53.230;10.390;2023-02-12T03:22:49;103262.81;;;7.07;88.34
76627;BME280;65519;53.230;10.390;2023-02-12T03:25:29;103264.09;;;6.96;89.18
76627;BME280;65519;53.230;10.390;2023-02-12T03:30:42;103270.34;;;6.97;89.48
76627;BME280;65519;53.230;10.390;2023-02-12T03:35:53;103270.19;;;6.76;89.75
76627;BME280;65519;53.230;10.390;2023-02-12T03:38:39;103266.28;;;6.78;89.56
76627;BME280;65519;53.230;10.390;2023-02-12T03:41:40;103268.63;;;6.81;89.99
76627;BME280;65519;53.230;10.390;2023-02-12T03:51:41;103279.16;;;6.99;88.51
76627;BME280;65519;53.230;10.390;2023-02-12T03:54:10;103265.00;;;6.89;88.62
76627;BME280;65519;53.230;10.390;2023-02-12T03:56:46;103286.34;;;6.92;89.07
76627;BME280;65519;53.230;10.390;2023-02-12T03:59:19;103278.91;;;6.86;89.82
76627;BME280;65519;53.230;10.390;2023-02-12T04:01:46;103277.47;;;6.98;88.42
76627;BME280;65519;53.230;10.390;2023-02-12T04:04:13;103282.97;;;6.90;88.68
76627;BME280;65519;53.230;10.390;2023-02-12T04:06:39;103271.13;;;6.83;88.89
76627;BME280;65519;53.230;10.390;2023-02-12T04:09:08;103291.09;;;6.90;88.80
76627;BME280;65519;53.230;10.390;2023-02-12T04:12:16;103291.53;;;6.79;89.36
76627;BME280;65519;53.230;10.390;2023-02-12T04:17:40;103298.22;;;6.91;88.46
76627;BME280;65519;53.230;10.390;2023-02-12T04:33:58;103292.22;;;6.73;89.67
76627;BME280;65519;53.230;10.390;2023-02-12T04:36:34;103298.84;;;6.93;88.71
76627;BME280;65519;53.230;10.390;2023-02-12T04:39:07;103298.63;;;6.80;88.79
76627;BME280;65519;53.230;10.390;2023-02-12T04:41:35;103299.34;;;6.74;89.35
76627;BME280;65519;53.230;10.390;2023-02-12T04:44:20;103295.09;;;6.71;89.42
76627;BME280;65519;53.230;10.390;2023-02-12T04:46:46;103304.75;;;6.74;89.98
76627;BME280;65519;53.230;10.390;2023-02-12T04:49:15;103305.31;;;6.69;89.12
76627;BME280;65519;53.230;10.390;2023-02-12T04:51:41;103299.03;;;6.69;88.96
76627;BME280;65519;53.230;10.390;2023-02-12T04:54:07;103300.19;;;6.74;89.00
76627;BME280;65519;53.230;10.390;2023-02-12T04:56:32;103304.63;;;6.67;88.93
76627;BME280;65519;53.230;10.390;2023-02-12T04:58:58;103299.41;;;6.66;88.86
76627;BME280;65519;53.230;10.390;2023-02-12T05:01:23;103314.50;;;6.60;89.14
76627;BME280;65519;53.230;10.390;2023-02-12T05:03:50;103321.38;;;6.48;89.95
76627;BME280;65519;53.230;10.390;2023-02-12T05:06:15;103317.63;;;6.49;90.29
76627;BME280;65519;53.230;10.390;2023-02-12T05:08:41;103301.78;;;6.60;89.50
76627;BME280;65519;53.230;10.390;2023-02-12T05:11:08;103308.19;;;6.68;90.05
76627;BME280;65519;53.230;10.390;2023-02-12T05:13:34;103314.38;;;6.53;89.59
76627;BME280;65519;53.230;10.390;2023-02-12T05:16:05;103314.69;;;6.58;90.34
76627;BME280;65519;53.230;10.390;2023-02-12T05:18:32;103314.94;;;6.41;91.16
76627;BME280;65519;53.230;10.390;2023-02-12T05:21:00;103312.56;;;6.46;90.18
76627;BME280;65519;53.230;10.390;2023-02-12T05:23:27;103304.16;;;6.64;90.66
76627;BME280;65519;53.230;10.390;2023-02-12T05:25:53;103308.03;;;6.69;89.92
76627;BME280;65519;53.230;10.390;2023-02-12T05:28:18;103318.47;;;6.72;89.08
76627;BME280;65519;53.230;10.390;2023-02-12T05:30:43;103317.00;;;6.70;89.14
76627;BME280;65519;53.230;10.390;2023-02-12T05:33:09;103310.66;;;6.54;90.13
76627;BME280;65519;53.230;10.390;2023-02-12T05:35:34;103311.00;;;6.51;90.57
76627;BME280;65519;53.230;10.390;2023-02-12T05:38:00;103307.81;;;6.48;90.12
76627;BME280;65519;53.230;10.390;2023-02-12T05:40:25;103316.50;;;6.35;91.16
76627;BME280;65519;53.230;10.390;2023-02-12T05:42:51;103319.50;;;6.40;91.10
76627;BME280;65519;53.230;10.390;2023-02-12T05:45:16;103321.38;;;6.48;90.94
76627;BME280;65519;53.230;10.390;2023-02-12T05:47:41;103323.16;;;6.55;89.96
76627;BME280;65519;53.230;10.390;2023-02-12T05:50:07;103320.81;;;6.52;90.23
76627;BME280;65519;53.230;10.390;2023-02-12T05:52:33;103321.25;;;6.64;89.77
76627;BME280;65519;53.230;10.390;2023-02-12T05:54:58;103323.16;;;6.55;90.07
76627;BME280;65519;53.230;10.390;2023-02-12T05:57:24;103322.34;;;6.78;88.93
76627;BME280;65519;53.230;10.390;2023-02-12T05:59:49;103319.78;;;6.53;89.64
76627;BME280;65519;53.230;10.390;2023-02-12T06:02:15;103327.44;;;6.81;88.97
76627;BME280;65519;53.230;10.390;2023-02-12T06:04:40;103331.81;;;6.59;90.54
76627;BME280;65519;53.230;10.390;2023-02-12T06:07:05;103335.22;;;6.53;89.84
76627;BME280;65519;53.230;10.390;2023-02-12T06:09:32;103342.44;;;6.60;90.26
76627;BME280;65519;53.230;10.390;2023-02-12T06:11:57;103340.41;;;6.63;89.32
76627;BME280;65519;53.230;10.390;2023-02-12T06:14:23;103333.25;;;6.70;88.90
76627;BME280;65519;53.230;10.390;2023-02-12T06:16:50;103341.56;;;6.37;90.10
76627;BME280;65519;53.230;10.390;2023-02-12T06:19:16;103335.81;;;6.32;91.08
76627;BME280;65519;53.230;10.390;2023-02-12T06:21:42;103338.81;;;6.45;89.75
76627;BME280;65519;53.230;10.390;2023-02-12T06:24:10;103342.75;;;6.35;90.94
76627;BME280;65519;53.230;10.390;2023-02-12T06:26:36;103345.03;;;6.15;91.35
76627;BME280;65519;53.230;10.390;2023-02-12T06:29:01;103350.84;;;6.43;90.45
76627;BME280;65519;53.230;10.390;2023-02-12T06:31:32;103347.84;;;6.38;91.39
76627;BME280;65519;53.230;10.390;2023-02-12T06:34:01;103352.88;;;6.72;90.13
76627;BME280;65519;53.230;10.390;2023-02-12T06:36:27;103355.03;;;6.53;89.79
76627;BME280;65519;53.230;10.390;2023-02-12T06:38:53;103352.66;;;6.50;90.32
76627;BME280;65519;53.230;10.390;2023-02-12T06:41:19;103361.56;;;6.36;90.40
76627;BME280;65519;53.230;10.390;2023-02-12T06:43:44;103365.94;;;6.37;90.77
76627;BME280;65519;53.230;10.390;2023-02-12T06:46:10;103365.50;;;6.26;91.60
76627;BME280;65519;53.230;10.390;2023-02-12T06:48:36;103362.75;;;6.34;91.48
76627;BME280;65519;53.230;10.390;2023-02-12T06:51:08;103372.00;;;6.39;91.27
76627;BME280;65519;53.230;10.390;2023-02-12T06:53:34;103374.75;;;6.31;91.13
76627;BME280;65519;53.230;10.390;2023-02-12T06:56:04;103380.19;;;6.31;91.97
76627;BME280;65519;53.230;10.390;2023-02-12T06:58:30;103370.69;;;6.35;91.33
76627;BME280;65519;53.230;10.390;2023-02-12T07:00:56;103367.94;;;6.43;91.60
76627;BME280;65519;53.230;10.390;2023-02-12T07:03:21;103374.25;;;6.36;91.55
76627;BME280;65519;53.230;10.390;2023-02-12T07:05:47;103383.09;;;6.60;90.90
76627;BME280;65519;53.230;10.390;2023-02-12T07:08:13;103378.13;;;6.72;90.42
76627;BME280;65519;53.230;10.390;2023-02-12T07:10:39;103381.22;;;6.61;91.18
76627;BME280;65519;53.230;10.390;2023-02-12T07:13:04;103381.00;;;6.40;91.66
76627;BME280;65519;53.230;10.390;2023-02-12T07:15:30;103389.13;;;6.71;90.08
76627;BME280;65519;53.230;10.390;2023-02-12T07:17:55;103387.88;;;6.50;91.93
76627;BME280;65519;53.230;10.390;2023-02-12T07:20:21;103387.72;;;6.52;90.99
76627;BME280;65519;53.230;10.390;2023-02-12T07:22:46;103393.09;;;6.60;91.56
76627;BME280;65519;53.230;10.390;2023-02-12T07:25:12;103377.25;;;6.49;91.48
76627;BME280;65519;53.230;10.390;2023-02-12T07:27:37;103386.75;;;6.45;92.87
76627;BME280;65519;53.230;10.390;2023-02-12T07:30:06;103391.59;;;6.57;93.02
76627;BME280;65519;53.230;10.390;2023-02-12T07:32:33;103395.84;;;6.83;91.58
76627;BME280;65519;53.230;10.390;2023-02-12T07:34:58;103394.25;;;6.66;92.04
76627;BME280;65519;53.230;10.390;2023-02-12T07:37:24;103402.06;;;6.60;92.01
76627;BME280;65519;53.230;10.390;2023-02-12T07:39:49;103389.28;;;6.46;93.30
76627;BME280;65519;53.230;10.390;2023-02-12T07:42:15;103402.09;;;6.52;92.77
76627;BME280;65519;53.230;10.390;2023-02-12T07:44:42;103401.03;;;6.70;92.10
76627;BME280;65519;53.230;10.390;2023-02-12T07:47:07;103395.44;;;6.63;92.91
76627;BME280;65519;53.230;10.390;2023-02-12T07:49:32;103401.03;;;6.70;92.45
76627;BME280;65519;53.230;10.390;2023-02-12T07:51:58;103395.75;;;6.99;91.06
76627;BME280;65519;53.230;10.390;2023-02-12T07:54:23;103404.81;;;6.83;91.76
76627;BME280;65519;53.230;10.390;2023-02-12T07:56:49;103395.53;;;7.09;90.60
76627;BME280;65519;53.230;10.390;2023-02-12T07:59:16;103395.41;;;7.25;90.89
76627;BME280;65519;53.230;10.390;2023-02-12T08:01:45;103398.97;;;7.25;89.29
76627;BME280;65519;53.230;10.390;2023-02-12T08:04:13;103401.22;;;7.22;89.60
76627;BME280;65519;53.230;10.390;2023-02-12T08:06:44;103400.03;;;7.16;90.28
76627;BME280;65519;53.230;10.390;2023-02-12T08:09:13;103410.97;;;7.31;89.65
76627;BME280;65519;53.230;10.390;2023-02-12T08:11:40;103418.75;;;7.11;91.39
76627;BME280;65519;53.230;10.390;2023-02-12T08:14:07;103419.03;;;7.16;90.28
76627;BME280;65519;53.230;10.390;2023-02-12T08:16:36;103416.91;;;7.04;90.52
76627;BME280;65519;53.230;10.390;2023-02-12T08:19:03;103418.84;;;6.95;91.07
76627;BME280;65519;53.230;10.390;2023-02-12T08:21:28;103420.03;;;7.23;90.89
76627;BME280;65519;53.230;10.390;2023-02-12T08:23:55;103421.72;;;7.24;90.96
76627;BME280;65519;53.230;10.390;2023-02-12T08:26:27;103416.72;;;7.13;90.39
76627;BME280;65519;53.230;10.390;2023-02-12T08:28:55;103420.38;;;7.20;91.16
76627;BME280;65519;53.230;10.390;2023-02-12T08:31:33;103426.22;;;7.32;90.94
76627;BME280;65519;53.230;10.390;2023-02-12T08:33:59;103427.34;;;7.15;90.54
76627;BME280;65519;53.230;10.390;2023-02-12T08:36:28;103438.03;;;7.16;90.40
76627;BME280;65519;53.230;10.390;2023-02-12T08:38:56;103435.28;;;7.24;90.67
76627;BME280;65519;53.230;10.390;2023-02-12T08:41:24;103431.56;;;7.17;90.65
76627;BME280;65519;53.230;10.390;2023-02-12T08:43:58;103433.81;;;7.14;90.96
76627;BME280;65519;53.230;10.390;2023-02-12T08:46:26;103437.19;;;7.39;90.20
76627;BME280;65519;53.230;10.390;2023-02-12T08:48:55;103447.75;;;7.33;90.12
76627;BME280;65519;53.230;10.390;2023-02-12T08:51:23;103441.59;;;7.62;89.69
76627;BME280;65519;53.230;10.390;2023-02-12T08:53:52;103440.16;;;7.52;89.90
76627;BME280;65519;53.230;10.390;2023-02-12T08:56:18;103447.50;;;7.66;89.08
76627;BME280;65519;53.230;10.390;2023-02-12T08:58:45;103451.25;;;7.65;90.12
76627;BME280;65519;53.230;10.390;2023-02-12T09:01:13;103445.03;;;7.94;87.83
76627;BME280;65519;53.230;10.390;2023-02-12T09:03:40;103451.47;;;7.78;88.96
76627;BME280;65519;53.230;10.390;2023-02-12T09:06:06;103438.94;;;7.77;88.17
76627;BME280;65519;53.230;10.390;2023-02-12T09:08:32;103448.16;;;7.68;88.36
76627;BME280;65519;53.230;10.390;2023-02-12T09:10:57;103463.50;;;7.61;89.12
76627;BME280;65519;53.230;10.390;2023-02-12T09:13:23;103463.63;;;7.67;88.94
76627;BME280;65519;53.230;10.390;2023-02-12T09:15:48;103457.28;;;7.75;88.21
76627;BME280;65519;53.230;10.390;2023-02-12T09:18:14;103463.38;;;7.77;88.03
76627;BME280;65519;53.230;10.390;2023-02-12T09:20:42;103466.38;;;7.82;88.79
76627;BME280;65519;53.230;10.390;2023-02-12T09:23:08;103472.47;;;7.84;88.57
76627;BME280;65519;53.230;10.390;2023-02-12T09:25:38;103449.19;;;7.67;88.89
76627;BME280;65519;53.230;10.390;2023-02-12T09:28:04;103472.03;;;7.95;87.98
76627;BME280;65519;53.230;10.390;2023-02-12T09:30:30;103464.81;;;7.88;88.65
76627;BME280;65519;53.230;10.390;2023-02-12T09:32:55;103472.09;;;7.87;88.11
76627;BME280;65519;53.230;10.390;2023-02-12T09:35:21;103474.59;;;7.74;89.09
76627;BME280;65519;53.230;10.390;2023-02-12T09:37:47;103475.94;;;7.93;88.23
76627;BME280;65519;53.230;10.390;2023-02-12T09:45:26;103483.03;;;8.17;87.61
76627;BME280;65519;53.230;10.390;2023-02-12T09:48:17;103478.44;;;8.17;87.10
76627;BME280;65519;53.230;10.390;2023-02-12T09:50:54;103485.28;;;8.28;87.41
76627;BME280;65519;53.230;10.390;2023-02-12T09:53:22;103490.69;;;8.13;88.06
76627;BME280;65519;53.230;10.390;2023-02-12T09:55:49;103494.03;;;8.00;87.37
76627;BME280;65519;53.230;10.390;2023-02-12T09:58:41;103487.53;;;8.24;87.53
76627;BME280;65519;53.230;10.390;2023-02-12T10:01:12;103488.91;;;8.05;87.50
76627;BME280;65519;53.230;10.390;2023-02-12T10:03:39;103493.16;;;8.23;87.53
76627;BME280;65519;53.230;10.390;2023-02-12T10:06:10;103494.91;;;8.16;88.21
76627;BME280;65519;53.230;10.390;2023-02-12T10:16:39;103493.03;;;8.39;87.31
76627;BME280;65519;53.230;10.390;2023-02-12T10:25:03;103491.88;;;8.33;89.29
76627;BME280;65519;53.230;10.390;2023-02-12T10:27:43;103494.34;;;8.58;88.34
76627;BME280;65519;53.230;10.390;2023-02-12T10:30:42;103485.13;;;8.44;88.87
76627;BME280;65519;53.230;10.390;2023-02-12T10:38:48;103477.94;;;8.51;88.89
76627;BME280;65519;53.230;10.390;2023-02-12T10:41:15;103482.91;;;8.62;88.28
76627;BME280;65519;53.230;10.390;2023-02-12T10:43:41;103490.31;;;8.54;88.53
76627;BME280;65519;53.230;10.390;2023-02-12T10:46:15;103481.00;;;8.77;87.46
76627;BME280;65519;53.230;10.390;2023-02-12T10:48:47;103476.34;;;8.57;87.90
76627;BME280;65519;53.230;10.390;2023-02-12T10:51:24;103466.41;;;8.64;88.85
76627;BME280;65519;53.230;10.390;2023-02-12T10:53:54;103482.16;;;8.68;88.15
76627;BME280;65519;53.230;10.390;2023-02-12T10:56:21;103479.78;;;8.65;88.06
76627;BME280;65519;53.230;10.390;2023-02-12T10:58:50;103478.88;;;8.58;88.15
76627;BME280;65519;53.230;10.390;2023-02-12T11:01:21;103477.97;;;8.28;89.53
76627;BME280;65519;53.230;10.390;2023-02-12T11:03:50;103480.09;;;8.41;89.37
76627;BME280;65519;53.230;10.390;2023-02-12T11:06:20;103476.88;;;8.82;87.36
76627;BME280;65519;53.230;10.390;2023-02-12T11:08:46;103479.69;;;8.44;89.34
76627;BME280;65519;53.230;10.390;2023-02-12T11:13:56;103475.50;;;8.41;90.46
76627;BME280;65519;53.230;10.390;2023-02-12T11:16:29;103471.06;;;8.55;89.09
76627;BME280;65519;53.230;10.390;2023-02-12T11:19:00;103470.44;;;8.53;87.81
76627;BME280;65519;53.230;10.390;2023-02-12T11:21:27;103475.31;;;8.43;89.89
76627;BME280;65519;53.230;10.390;2023-02-12T11:23:52;103470.53;;;8.45;89.45
76627;BME280;65519;53.230;10.390;2023-02-12T11:28:58;103469.66;;;8.30;90.80
76627;BME280;65519;53.230;10.390;2023-02-12T11:31:24;103461.97;;;8.33;90.66
76627;BME280;65519;53.230;10.390;2023-02-12T11:34:17;103463.19;;;8.31;90.01
76627;BME280;65519;53.230;10.390;2023-02-12T11:36:48;103463.91;;;8.10;90.82
76627;BME280;65519;53.230;10.390;2023-02-12T11:39:29;103461.81;;;7.97;90.89
76627;BME280;65519;53.230;10.390;2023-02-12T11:42:01;103471.03;;;8.26;91.94
76627;BME280;65519;53.230;10.390;2023-02-12T11:44:39;103464.38;;;8.14;91.31
76627;BME280;65519;53.230;10.390;2023-02-12T11:47:09;103457.53;;;8.18;91.46
76627;BME280;65519;53.230;10.390;2023-02-12T11:49:42;103458.81;;;8.59;90.26
76627;BME280;65519;53.230;10.390;2023-02-12T11:52:19;103448.91;;;8.88;88.65
76627;BME280;65519;53.230;10.390;2023-02-12T11:54:46;103456.88;;;8.89;88.38
76627;BME280;65519;53.230;10.390;2023-02-12T12:02:43;103453.88;;;8.25;91.39
76627;BME280;65519;53.230;10.390;2023-02-12T12:05:17;103451.31;;;8.47;91.08
76627;BME280;65519;53.230;10.390;2023-02-12T12:07:47;103447.75;;;8.61;90.26
76627;BME280;65519;53.230;10.390;2023-02-12T12:10:17;103445.97;;;8.38;90.06
76627;BME280;65519;53.230;10.390;2023-02-12T12:12:56;103438.72;;;8.31;90.90
76627;BME280;65519;53.230;10.390;2023-02-12T12:15:30;103446.53;;;8.34;92.00
76627;BME280;65519;53.230;10.390;2023-02-12T12:21:08;103447.03;;;8.15;92.36
76627;BME280;65519;53.230;10.390;2023-02-12T12:23:44;103440.22;;;8.19;92.81
76627;BME280;65519;53.230;10.390;2023-02-12T12:26:26;103443.88;;;8.26;92.05
76627;BME280;65519;53.230;10.390;2023-02-12T12:29:17;103435.25;;;8.07;91.64
76627;BME280;65519;53.230;10.390;2023-02-12T12:31:48;103430.66;;;8.23;92.39
76627;BME280;65519;53.230;10.390;2023-02-12T12:34:18;103439.06;;;8.13;93.29
76627;BME280;65519;53.230;10.390;2023-02-12T12:56:12;103413.78;;;8.86;88.94
76627;BME280;65519;53.230;10.390;2023-02-12T13:12:32;103406.03;;;8.54;89.86
76627;BME280;65519;53.230;10.390;2023-02-12T13:28:48;103388.88;;;8.53;90.49
76627;BME280;65519;53.230;10.390;2023-02-12T13:31:21;103379.03;;;8.52;91.03
76627;BME280;65519;53.230;10.390;2023-02-12T13:33:51;103383.22;;;8.55;90.62
76627;BME280;65519;53.230;10.390;2023-02-12T13:36:19;103386.25;;;8.45;91.12
76627;BME280;65519;53.230;10.390;2023-02-12T13:38:51;103371.28;;;8.85;89.42
76627;BME280;65519;53.230;10.390;2023-02-12T13:41:19;103372.31;;;8.84;89.96
76627;BME280;65519;53.230;10.390;2023-02-12T13:46:55;103384.56;;;8.95;89.17
76627;BME280;65519;53.230;10.390;2023-02-12T13:52:04;103379.75;;;8.75;89.73
76627;BME280;65519;53.230;10.390;2023-02-12T13:54:59;103382.34;;;8.84;88.97
76627;BME280;65519;53.230;10.390;2023-02-12T13:57:26;103373.91;;;8.78;88.88
76627;BME280;65519;53.230;10.390;2023-02-12T13:59:53;103376.78;;;8.92;88.45
76627;BME280;65519;53.230;10.390;2023-02-12T14:05:29;103373.03;;;9.14;87.85
76627;BME280;65519;53.230;10.390;2023-02-12T14:07:58;103377.06;;;8.97;88.71
76627;BME280;65519;53.230;10.390;2023-02-12T14:10:40;103369.16;;;9.02;88.83
76627;BME280;65519;53.230;10.390;2023-02-12T14:13:19;103372.47;;;8.97;88.49
76627;BME280;65519;53.230;10.390;2023-02-12T14:15:49;103364.34;;;9.25;87.48
76627;BME280;65519;53.230;10.390;2023-02-12T14:18:35;103362.81;;;8.95;87.99
76627;BME280;65519;53.230;10.390;2023-02-12T14:23:37;103364.91;;;8.99;88.51
76627;BME280;65519;53.230;10.390;2023-02-12T14:26:17;103370.56;;;8.98;88.68
76627;BME280;65519;53.230;10.390;2023-02-12T14:28:53;103356.56;;;9.01;88.61
76627;BME280;65519;53.230;10.390;2023-02-12T14:31:30;103366.63;;;9.00;88.90
76627;BME280;65519;53.230;10.390;2023-02-12T14:39:03;103369.59;;;9.27;88.08
76627;BME280;65519;53.230;10.390;2023-02-12T14:41:30;103381.34;;;9.06;88.65
76627;BME280;65519;53.230;10.390;2023-02-12T14:46:45;103363.03;;;9.21;87.63
76627;BME280;65519;53.230;10.390;2023-02-12T14:52:04;103369.09;;;9.17;88.31
76627;BME280;65519;53.230;10.390;2023-02-12T14:56:58;103375.38;;;8.96;89.15
76627;BME280;65519;53.230;10.390;2023-02-12T14:59:26;103359.56;;;9.06;88.32
76627;BME280;65519;53.230;10.390;2023-02-12T15:01:54;103367.28;;;9.24;88.34
76627;BME280;65519;53.230;10.390;2023-02-12T15:04:27;103367.22;;;9.17;87.80
76627;BME280;65519;53.230;10.390;2023-02-12T15:07:19;103369.41;;;9.07;88.26
76627;BME280;65519;53.230;10.390;2023-02-12T15:12:20;103372.75;;;9.30;87.26
76627;BME280;65519;53.230;10.390;2023-02-12T15:14:56;103373.50;;;9.18;88.26
76627;BME280;65519;53.230;10.390;2023-02-12T15:17:31;103370.31;;;9.35;87.85
76627;BME280;65519;53.230;10.390;2023-02-12T15:20:03;103377.41;;;9.30;87.97
76627;BME280;65519;53.230;10.390;2023-02-12T15:22:39;103380.22;;;9.22;88.70
76627;BME280;65519;53.230;10.390;2023-02-12T15:27:46;103380.16;;;9.15;88.71
76627;BME280;65519;53.230;10.390;2023-02-12T15:30:18;103390.00;;;8.95;89.43
76627;BME280;65519;53.230;10.390;2023-02-12T15:32:44;103391.03;;;8.94;89.57
76627;BME280;65519;53.230;10.390;2023-02-12T15:35:33;103383.34;;;8.97;89.37
76627;BME280;65519;53.230;10.390;2023-02-12T15:38:00;103391.69;;;8.96;88.62
76627;BME280;65519;53.230;10.390;2023-02-12T15:40:27;103377.53;;;8.64;89.26
76627;BME280;65519;53.230;10.390;2023-02-12T15:45:31;103393.53;;;8.74;89.93
76627;BME280;65519;53.230;10.390;2023-02-12T15:50:48;103384.72;;;9.08;87.41
76627;BME280;65519;53.230;10.390;2023-02-12T15:53:16;103392.59;;;9.03;88.93
76627;BME280;65519;53.230;10.390;2023-02-12T15:55:44;103384.91;;;9.28;87.38
76627;BME280;65519;53.230;10.390;2023-02-12T16:00:52;103393.22;;;8.84;88.85
76627;BME280;65519;53.230;10.390;2023-02-12T16:05:58;103396.28;;;8.95;88.78
76627;BME280;65519;53.230;10.390;2023-02-12T16:08:25;103393.06;;;9.06;88.08